Time;durP1;ratioP1;P1;durP2;ratioP2;P2;SDS_P1;SDS_P2;PMS_P1;PMS_P2;Temp;Humidity;BMP_temperature;BMP_pressure;BME280_temperature;BME280_humidity;BME280_pressure;Samples;Min_cycle;Max_cycle;Signal;HPM_P1;HPM_P2
2023/02/04 00:00:12;;;;;;;13.30;3.90;;;7.20;30.20;;;;;;5035308;28;20453;-78
2023/02/04 00:02:39;;;;;;;17.97;3.90;;;7.20;30.90;;;;;;5035247;28;20862;-78
2023/02/04 00:05:07;;;;;;;25.33;5.23;;;7.20;32.70;;;;;;5026869;28;21028;-77
2023/02/04 00:07:33;;;;;;;14.70;3.00;;;7.20;37.20;;;;;;5031601;28;21003;-78
2023/02/04 00:10:01;;;;;;;13.90;3.33;;;7.10;37.90;;;;;;5035192;28;20460;-79
2023/02/04 00:12:27;;;;;;;15.80;3.57;;;7.10;40.40;;;;;;5033794;28;20468;-79
2023/02/04 00:14:54;;;;;;;16.43;4.20;;;7.10;48.70;;;;;;5034353;28;20493;-79
2023/02/04 00:17:22;;;;;;;10.37;3.03;;;7.10;37.90;;;;;;5036372;28;20994;-78
2023/02/04 00:19:49;;;;;;;13.73;3.30;;;7.10;39.10;;;;;;5036974;28;20475;-79
2023/02/04 00:22:16;;;;;;;17.63;3.60;;;7.00;44.80;;;;;;5040151;28;20472;-79
2023/02/04 00:24:47;;;;;;;16.43;3.70;;;6.90;43.10;;;;;;5038971;28;20562;-79
2023/02/04 00:27:14;;;;;;;19.47;4.40;;;7.00;51.10;;;;;;5040311;28;20489;-79
2023/02/04 00:29:41;;;;;;;15.67;4.07;;;7.00;49.60;;;;;;5051741;28;20516;-79
2023/02/04 00:32:08;;;;;;;11.00;2.80;;;7.00;44.20;;;;;;5025113;28;20445;-79
2023/02/04 00:34:36;;;;;;;10.20;3.10;;;7.10;40.00;;;;;;5034338;28;21026;-77
2023/02/04 00:37:03;;;;;;;14.03;3.80;;;7.10;31.50;;;;;;5029872;28;21033;-78
2023/02/04 00:39:30;;;;;;;16.50;3.80;;;7.20;37.80;;;;;;5036438;28;20559;-77
2023/02/04 00:41:57;;;;;;;11.77;3.07;;;7.20;26.50;;;;;;5034218;28;20468;-78
2023/02/04 00:44:23;;;;;;;17.93;4.53;;;7.30;27.00;;;;;;5033036;28;20492;-77
2023/02/04 00:46:50;;;;;;;15.87;4.00;;;7.30;30.30;;;;;;5033172;28;20473;-76
2023/02/04 00:49:17;;;;;;;13.63;3.60;;;7.30;22.20;;;;;;5032676;28;20914;-77
2023/02/04 00:51:47;;;;;;;22.10;4.30;;;7.40;21.70;;;;;;5033924;28;20474;-76
2023/02/04 00:54:14;;;;;;;16.47;3.33;;;7.40;12.40;;;;;;5031682;28;20502;-77
2023/02/04 00:56:42;;;;;;;14.93;3.70;;;7.50;6.30;;;;;;5032674;28;20565;-77
2023/02/04 00:59:08;;;;;;;22.70;3.80;;;7.50;1.00;;;;;;5033009;28;20468;-78
2023/02/04 01:01:35;;;;;;;16.60;3.47;;;7.60;1.00;;;;;;5034243;28;20449;-78
2023/02/04 01:04:02;;;;;;;9.90;2.90;;;7.60;1.00;;;;;;5027105;28;20468;-78
2023/02/04 01:06:29;;;;;;;8.47;3.20;;;7.60;1.00;;;;;;5032938;28;20475;-78
2023/02/04 01:08:57;;;;;;;17.00;4.70;;;7.60;1.00;;;;;;5032695;28;20476;-77
2023/02/04 01:11:24;;;;;;;19.77;3.17;;;7.70;1.00;;;;;;5033275;28;20474;-77
2023/02/04 01:13:51;;;;;;;13.43;2.70;;;7.70;1.00;;;;;;5032314;28;20495;-78
2023/02/04 01:16:17;;;;;;;20.77;4.50;;;7.70;1.00;;;;;;5032372;28;20460;-78
2023/02/04 01:18:44;;;;;;;12.00;3.17;;;7.70;1.00;;;;;;5032816;28;20444;-78
2023/02/04 01:21:11;;;;;;;14.73;3.53;;;7.70;1.00;;;;;;5026343;28;20532;-78
2023/02/04 01:23:38;;;;;;;10.73;3.90;;;7.60;1.00;;;;;;5032573;28;20470;-79
2023/02/04 01:26:06;;;;;;;14.33;3.60;;;7.60;1.00;;;;;;5023961;28;20527;-78
2023/02/04 01:28:33;;;;;;;14.87;4.23;;;7.60;1.00;;;;;;5032933;28;20463;-78
2023/02/04 01:31:00;;;;;;;19.10;3.13;;;7.70;1.00;;;;;;5031428;28;20464;-78
2023/02/04 01:33:27;;;;;;;18.10;4.57;;;7.70;1.00;;;;;;5032483;28;20491;-77
2023/02/04 01:35:54;;;;;;;12.50;4.17;;;7.70;1.00;;;;;;5038048;28;20472;-78
2023/02/04 01:38:20;;;;;;;15.80;3.93;;;7.70;1.00;;;;;;5036864;28;20480;-77
2023/02/04 01:40:48;;;;;;;16.90;3.07;;;7.70;1.00;;;;;;5035909;28;20475;-77
2023/02/04 01:43:17;;;;;;;14.90;3.07;;;7.80;1.00;;;;;;5037852;28;20463;-77
2023/02/04 01:45:44;;;;;;;16.27;3.97;;;7.80;1.00;;;;;;5031217;28;20528;-78
2023/02/04 01:48:11;;;;;;;17.23;3.23;;;7.70;1.00;;;;;;5036889;28;20865;-79
2023/02/04 01:50:38;;;;;;;19.10;5.00;;;7.70;1.00;;;;;;5020614;28;20485;-78
2023/02/04 01:53:05;;;;;;;16.50;3.73;;;7.70;1.00;;;;;;5032490;28;22395;-79
2023/02/04 01:55:33;;;;;;;18.73;3.30;;;7.70;1.00;;;;;;5037364;28;20461;-77
2023/02/04 01:58:00;;;;;;;18.77;3.33;;;7.70;1.00;;;;;;5025855;28;20469;-77
2023/02/04 02:00:31;;;;;;;15.30;3.43;;;7.80;1.00;;;;;;5036211;28;20472;-78
2023/02/04 02:02:59;;;;;;;10.97;3.30;;;7.80;1.00;;;;;;5033934;28;20472;-79
2023/02/04 02:05:30;;;;;;;10.70;3.17;;;7.80;1.00;;;;;;5035962;28;20481;-78
2023/02/04 02:07:59;;;;;;;14.50;3.43;;;7.80;1.00;;;;;;5034567;28;20471;-79
2023/02/04 02:10:26;;;;;;;13.93;3.17;;;7.80;1.00;;;;;;5031391;28;20465;-78
2023/02/04 02:12:54;;;;;;;16.60;3.83;;;7.90;1.00;;;;;;5035134;28;20951;-78
2023/02/04 02:15:22;;;;;;;21.10;4.47;;;7.90;1.00;;;;;;5033682;28;20473;-79
2023/02/04 02:17:51;;;;;;;15.77;3.47;;;7.90;1.00;;;;;;5048029;28;20519;-78
2023/02/04 02:20:20;;;;;;;15.37;3.40;;;7.90;1.00;;;;;;5051049;28;20879;-78
2023/02/04 02:22:57;;;;;;;10.60;2.87;;;7.90;1.00;;;;;;5054565;28;20479;-78
2023/02/04 02:25:26;;;;;;;18.93;4.03;;;7.90;1.00;;;;;;5028539;28;20545;-78
2023/02/04 02:27:53;;;;;;;16.07;3.53;;;7.90;1.00;;;;;;5034692;28;20461;-78
2023/02/04 02:30:20;;;;;;;9.23;3.80;;;7.90;1.00;;;;;;5030969;28;20464;-78
2023/02/04 02:32:48;;;;;;;15.50;4.10;;;7.90;1.00;;;;;;5035109;28;20473;-78
2023/02/04 02:35:16;;;;;;;13.63;3.37;;;7.90;1.00;;;;;;5036284;28;20480;-78
2023/02/04 02:37:43;;;;;;;10.63;3.60;;;7.90;1.00;;;;;;5036022;28;20453;-79
2023/02/04 02:40:11;;;;;;;10.57;2.70;;;7.90;1.00;;;;;;5037686;28;20837;-79
2023/02/04 02:42:40;;;;;;;19.37;3.53;;;7.90;1.00;;;;;;5041306;28;20460;-78
2023/02/04 02:45:15;;;;;;;17.83;3.47;;;7.80;5.50;;;;;;5054707;28;20552;-77
2023/02/04 02:47:42;;;;;;;17.03;3.17;;;7.70;18.60;;;;;;5035316;28;20473;-77
2023/02/04 02:50:15;;;;;;;16.20;3.47;;;7.70;28.00;;;;;;5034659;28;20478;-78
2023/02/04 02:52:42;;;;;;;15.10;3.27;;;7.70;25.10;;;;;;5033380;28;20491;-78
2023/02/04 02:55:15;;;;;;;7.33;2.43;;;7.80;22.20;;;;;;5027769;28;20492;-77
2023/02/04 02:57:44;;;;;;;7.50;2.33;;;7.80;26.00;;;;;;5032243;28;20521;-77
2023/02/04 03:00:15;;;;;;;10.43;2.60;;;7.80;23.20;;;;;;5034618;28;21142;-78
2023/02/04 03:02:42;;;;;;;13.00;3.43;;;7.80;19.90;;;;;;5034695;28;20473;-79
2023/02/04 03:05:09;;;;;;;9.10;2.77;;;7.70;17.60;;;;;;5031352;28;20506;-78
2023/02/04 03:07:36;;;;;;;15.83;4.00;;;7.70;25.90;;;;;;5031176;28;20544;-78
2023/02/04 03:10:04;;;;;;;20.20;3.80;;;7.70;29.90;;;;;;5022670;28;20465;-78
2023/02/04 03:12:31;;;;;;;8.40;3.07;;;7.70;22.80;;;;;;5034314;28;20822;-77
2023/02/04 03:14:59;;;;;;;19.70;4.00;;;7.60;34.40;;;;;;5026424;28;20499;-77
2023/02/04 03:17:26;;;;;;;12.87;3.93;;;7.60;34.80;;;;;;5034318;28;20449;-78
2023/02/04 03:19:53;;;;;;;11.53;2.93;;;7.60;42.10;;;;;;5034194;28;20482;-78
2023/02/04 03:22:20;;;;;;;12.97;3.67;;;7.60;48.50;;;;;;5033273;28;20460;-78
2023/02/04 03:24:47;;;;;;;14.20;2.90;;;7.60;47.70;;;;;;5025277;28;20568;-79
2023/02/04 03:27:14;;;;;;;10.40;3.00;;;7.60;49.90;;;;;;5022235;28;20459;-78
2023/02/04 03:29:43;;;;;;;18.90;3.27;;;7.60;48.80;;;;;;5024149;28;20470;-78
2023/02/04 03:32:12;;;;;;;10.13;3.23;;;7.70;51.20;;;;;;5031994;28;20465;-78
2023/02/04 03:34:38;;;;;;;13.03;4.07;;;7.70;52.10;;;;;;5032428;28;21036;-78
2023/02/04 03:37:05;;;;;;;15.07;3.80;;;7.70;49.80;;;;;;5028442;28;20830;-77
2023/02/04 03:39:32;;;;;;;25.17;4.63;;;7.70;46.70;;;;;;5033638;28;20855;-77
2023/02/04 03:41:59;;;;;;;11.13;2.97;;;7.70;43.50;;;;;;5030567;28;20551;-77
2023/02/04 03:44:26;;;;;;;19.77;3.30;;;7.70;45.80;;;;;;5025606;28;21006;-77
2023/02/04 03:46:54;;;;;;;15.43;2.60;;;7.70;46.40;;;;;;5014481;28;20458;-77
2023/02/04 03:49:22;;;;;;;14.80;3.30;;;7.80;47.00;;;;;;5014574;28;20822;-78
2023/02/04 03:51:49;;;;;;;9.63;2.90;;;7.70;48.10;;;;;;5031813;28;20984;-78
2023/02/04 03:54:16;;;;;;;12.57;4.30;;;7.80;43.00;;;;;;5028787;28;20493;-78
2023/02/04 03:56:43;;;;;;;8.10;2.87;;;7.70;44.10;;;;;;5022373;28;20483;-77
2023/02/04 03:59:10;;;;;;;11.47;3.13;;;7.80;43.10;;;;;;5026907;28;20505;-77
2023/02/04 04:01:36;;;;;;;15.30;3.10;;;7.80;30.50;;;;;;5032631;28;20728;-78
2023/02/04 04:04:03;;;;;;;11.97;3.27;;;7.80;28.70;;;;;;5027605;28;20448;-77
2023/02/04 04:06:31;;;;;;;14.83;3.30;;;7.80;28.50;;;;;;5035599;28;20551;-81
2023/02/04 04:08:58;;;;;;;13.13;3.20;;;7.80;24.20;;;;;;5016696;28;20457;-77
2023/02/04 04:11:25;;;;;;;16.93;3.90;;;7.80;27.80;;;;;;5030931;28;20482;-77
2023/02/04 04:13:52;;;;;;;14.40;3.13;;;7.90;29.60;;;;;;5026550;28;20805;-76
2023/02/04 04:16:19;;;;;;;21.07;3.60;;;7.90;21.90;;;;;;5033873;28;20531;-77
2023/02/04 04:18:46;;;;;;;22.40;3.60;;;7.90;19.20;;;;;;5032809;28;20977;-77
2023/02/04 04:21:13;;;;;;;19.70;3.33;;;7.90;22.90;;;;;;5031999;28;20465;-78
2023/02/04 04:23:41;;;;;;;12.50;3.07;;;7.90;29.00;;;;;;5031179;28;20670;-76
2023/02/04 04:26:08;;;;;;;16.10;3.77;;;7.80;29.00;;;;;;5024134;28;20476;-77
2023/02/04 04:28:34;;;;;;;13.97;3.60;;;7.80;27.70;;;;;;5032817;28;20459;-78
2023/02/04 04:31:01;;;;;;;10.00;2.50;;;7.90;32.50;;;;;;5032172;28;20472;-77
2023/02/04 04:33:28;;;;;;;27.10;3.67;;;7.90;32.40;;;;;;5026430;28;20453;-77
2023/02/04 04:35:55;;;;;;;16.30;3.47;;;7.90;35.50;;;;;;5014833;28;20494;-78
2023/02/04 04:38:21;;;;;;;20.47;3.10;;;7.80;38.80;;;;;;5029995;28;20564;-77
2023/02/04 04:40:50;;;;;;;24.50;3.30;;;7.90;40.70;;;;;;5033192;28;20855;-77
2023/02/04 04:43:17;;;;;;;9.80;2.60;;;7.80;28.60;;;;;;5028733;28;20454;-77
2023/02/04 04:45:43;;;;;;;20.13;3.67;;;7.80;35.20;;;;;;5015082;28;20464;-77
2023/02/04 04:48:10;;;;;;;18.83;3.53;;;7.80;35.00;;;;;;5032605;28;20460;-75
2023/02/04 04:50:37;;;;;;;15.53;3.20;;;7.80;31.30;;;;;;5016848;28;20988;-77
2023/02/04 04:53:09;;;;;;;12.07;3.13;;;7.80;29.60;;;;;;5017995;28;20465;-75
2023/02/04 04:55:39;;;;;;;12.43;2.63;;;7.80;35.70;;;;;;5031706;28;20575;-76
2023/02/04 04:58:08;;;;;;;14.63;2.90;;;7.80;37.70;;;;;;5029403;28;20809;-77
2023/02/04 05:00:37;;;;;;;9.80;2.53;;;7.70;54.30;;;;;;5031817;28;20456;-74
2023/02/04 05:03:05;;;;;;;16.70;2.93;;;7.70;58.60;;;;;;5012285;28;20475;-75
2023/02/04 05:05:32;;;;;;;12.53;3.67;;;7.70;62.20;;;;;;5041332;23;20572;-81
2023/02/04 05:07:59;;;;;;;16.47;3.30;;;7.70;53.10;;;;;;5041226;28;20484;-81
2023/02/04 05:10:26;;;;;;;9.90;2.80;;;7.80;53.50;;;;;;5039857;28;20527;-80
2023/02/04 05:12:53;;;;;;;14.93;3.50;;;7.70;41.70;;;;;;5035568;28;20455;-80
2023/02/04 05:15:21;;;;;;;15.97;3.37;;;7.70;51.50;;;;;;5026737;28;20568;-79
2023/02/04 05:17:48;;;;;;;17.37;3.43;;;7.70;49.50;;;;;;5018542;28;20468;-80
2023/02/04 05:20:15;;;;;;;11.93;2.60;;;7.70;46.10;;;;;;5017697;28;20513;-80
2023/02/04 05:22:42;;;;;;;9.57;2.90;;;7.70;63.40;;;;;;5027238;28;20452;-79
2023/02/04 05:25:09;;;;;;;8.97;2.57;;;7.60;68.40;;;;;;5028384;28;20546;-81
2023/02/04 05:27:36;;;;;;;11.13;2.40;;;7.60;68.30;;;;;;5018532;28;20488;-81
2023/02/04 05:30:03;;;;;;;16.10;3.10;;;7.60;94.10;;;;;;5003422;28;20479;-80
2023/02/04 05:32:31;;;;;;;14.83;3.00;;;7.60;95.60;;;;;;4998189;28;20457;-79
2023/02/04 05:34:58;;;;;;;16.83;2.87;;;7.60;98.20;;;;;;4997556;28;20490;-80
2023/02/04 05:37:24;;;;;;;10.20;3.03;;;7.60;96.80;;;;;;5005356;28;21027;-80
2023/02/04 05:39:51;;;;;;;10.50;3.37;;;7.50;97.90;;;;;;5019845;28;20460;-81
2023/02/04 05:42:18;;;;;;;8.30;2.30;;;7.50;99.90;;;;;;5010273;28;20564;-79
2023/02/04 05:44:45;;;;;;;11.00;3.57;;;7.50;99.90;;;;;;5009352;28;20994;-81
2023/02/04 05:47:12;;;;;;;20.03;3.77;;;7.50;99.90;;;;;;5009368;28;20463;-83
2023/02/04 05:49:40;;;;;;;21.43;3.60;;;7.50;99.90;;;;;;4994769;28;20544;-80
2023/02/04 05:52:07;;;;;;;19.17;4.30;;;7.50;99.90;;;;;;4994548;28;20548;-79
2023/02/04 05:54:34;;;;;;;18.43;2.90;;;7.50;99.50;;;;;;5009327;28;20572;-81
2023/02/04 05:57:00;;;;;;;22.07;3.63;;;7.50;98.50;;;;;;5003803;28;20461;-81
2023/02/04 05:59:27;;;;;;;13.30;3.30;;;7.60;98.20;;;;;;5010101;28;20445;-81
2023/02/04 06:01:54;;;;;;;17.73;2.87;;;7.60;95.70;;;;;;5022432;28;20560;-82
2023/02/04 06:04:21;;;;;;;11.53;3.00;;;7.60;99.30;;;;;;5017182;28;20900;-85
2023/02/04 06:06:49;;;;;;;13.67;3.70;;;7.70;91.70;;;;;;5022667;28;20551;-82
2023/02/04 06:09:16;;;;;;;15.60;3.93;;;7.60;90.50;;;;;;5020876;28;20470;-81
2023/02/04 06:11:42;;;;;;;13.20;3.70;;;7.60;91.20;;;;;;5024232;28;20526;-83
2023/02/04 06:14:10;;;;;;;10.80;2.90;;;7.70;94.60;;;;;;5024884;28;20529;-83
2023/02/04 06:16:36;;;;;;;11.30;3.30;;;7.70;89.00;;;;;;5018922;28;20486;-83
2023/02/04 06:19:03;;;;;;;23.87;3.13;;;7.70;88.60;;;;;;5013080;28;20517;-80
2023/02/04 06:21:30;;;;;;;18.40;4.00;;;7.60;94.90;;;;;;5024023;28;20449;-82
2023/02/04 06:23:58;;;;;;;15.37;3.20;;;7.60;94.70;;;;;;5014811;28;20521;-80
2023/02/04 06:26:25;;;;;;;11.67;2.87;;;7.60;95.90;;;;;;5003184;28;20551;-79
2023/02/04 06:28:52;;;;;;;11.50;2.73;;;7.70;98.90;;;;;;5015341;28;20926;-85
2023/02/04 06:31:19;;;;;;;8.97;2.07;;;7.60;93.20;;;;;;5014306;28;20538;-78
2023/02/04 06:33:46;;;;;;;13.80;3.40;;;7.60;96.30;;;;;;5012595;28;20481;-78
2023/02/04 06:36:13;;;;;;;9.03;2.43;;;7.60;95.80;;;;;;5018083;28;21517;-79
2023/02/04 06:38:40;;;;;;;8.70;3.80;;;7.60;85.20;;;;;;5013654;28;20971;-80
2023/02/04 06:41:08;;;;;;;11.67;3.50;;;7.70;89.70;;;;;;5015104;28;20457;-79
2023/02/04 06:43:35;;;;;;;14.20;3.43;;;7.70;89.10;;;;;;5022169;28;20545;-79
2023/02/04 06:46:02;;;;;;;10.60;3.70;;;7.70;87.00;;;;;;5023261;28;20991;-79
2023/02/04 06:48:28;;;;;;;23.30;4.20;;;7.70;73.00;;;;;;5021041;28;20497;-79
2023/02/04 06:50:55;;;;;;;11.30;2.80;;;7.70;89.10;;;;;;5016829;28;20985;-78
2023/02/04 06:53:22;;;;;;;12.73;2.50;;;7.70;90.50;;;;;;5015230;28;20450;-78
2023/02/04 06:55:49;;;;;;;12.53;2.17;;;7.80;92.10;;;;;;5014724;28;20867;-78
2023/02/04 06:58:17;;;;;;;14.57;3.10;;;7.80;90.10;;;;;;5014447;28;20866;-78
2023/02/04 07:00:44;;;;;;;11.87;2.97;;;7.80;84.40;;;;;;5014415;28;20536;-78
2023/02/04 07:03:11;;;;;;;13.83;3.00;;;7.90;88.20;;;;;;5014836;28;20458;-79
2023/02/04 07:05:38;;;;;;;17.07;3.63;;;7.80;78.30;;;;;;5014052;28;21023;-78
2023/02/04 07:08:05;;;;;;;13.43;4.23;;;7.90;80.20;;;;;;5004283;28;20833;-78
2023/02/04 07:10:32;;;;;;;12.30;2.97;;;7.90;78.50;;;;;;5024345;28;20464;-79
2023/02/04 07:12:59;;;;;;;11.63;3.30;;;7.80;75.10;;;;;;5025972;28;20457;-78
2023/02/04 07:15:27;;;;;;;11.13;3.50;;;7.80;65.30;;;;;;5033979;28;20505;-78
2023/02/04 07:17:54;;;;;;;13.67;3.40;;;7.70;85.20;;;;;;5022921;28;20458;-78
2023/02/04 07:20:21;;;;;;;16.50;3.37;;;7.80;87.50;;;;;;5014061;28;20810;-78
2023/02/04 07:22:47;;;;;;;16.53;3.07;;;7.80;66.70;;;;;;5021599;28;20569;-77
2023/02/04 07:25:16;;;;;;;15.37;3.00;;;7.80;66.90;;;;;;5024688;28;21005;-78
2023/02/04 07:27:43;;;;;;;13.33;3.70;;;7.80;71.20;;;;;;5017133;28;20552;-78
2023/02/04 07:30:11;;;;;;;11.00;2.57;;;7.90;65.70;;;;;;5025402;28;20449;-79
2023/02/04 07:32:39;;;;;;;10.53;2.83;;;7.90;59.70;;;;;;5033388;28;20539;-77
2023/02/04 07:35:07;;;;;;;17.10;4.70;;;7.90;59.80;;;;;;5033980;28;20524;-77
2023/02/04 07:37:34;;;;;;;13.23;3.40;;;7.90;60.80;;;;;;5025980;28;20552;-77
2023/02/04 07:40:00;;;;;;;11.00;3.87;;;7.90;66.60;;;;;;5002790;28;20476;-79
2023/02/04 07:42:27;;;;;;;22.83;4.33;;;8.00;59.00;;;;;;5025588;28;20536;-78
2023/02/04 07:44:54;;;;;;;18.30;3.50;;;8.00;56.80;;;;;;5018065;28;20498;-78
2023/02/04 07:47:21;;;;;;;21.03;3.50;;;8.00;54.80;;;;;;5005035;28;20964;-79
2023/02/04 07:49:49;;;;;;;16.57;3.97;;;8.00;59.70;;;;;;5005976;28;20478;-78
2023/02/04 07:52:16;;;;;;;12.17;3.80;;;8.00;51.20;;;;;;5004506;28;20479;-78
2023/02/04 07:54:43;;;;;;;10.60;3.07;;;8.00;45.50;;;;;;5011782;28;20576;-78
2023/02/04 07:57:10;;;;;;;15.97;4.43;;;8.00;53.80;;;;;;5011369;28;20548;-78
2023/02/04 07:59:37;;;;;;;14.97;3.73;;;8.00;58.70;;;;;;4999696;28;20543;-77
2023/02/04 08:02:04;;;;;;;12.50;2.87;;;8.00;59.60;;;;;;4994083;28;20509;-78
2023/02/04 08:04:31;;;;;;;18.97;3.00;;;8.00;44.10;;;;;;5001961;28;20572;-77
2023/02/04 08:06:59;;;;;;;13.07;4.20;;;8.00;47.90;;;;;;5010330;28;20561;-78
2023/02/04 08:09:26;;;;;;;19.13;3.73;;;8.00;54.20;;;;;;5003810;28;20470;-78
2023/02/04 08:11:53;;;;;;;16.53;3.93;;;8.10;52.10;;;;;;5012482;28;20473;-77
2023/02/04 08:14:20;;;;;;;13.20;3.80;;;8.10;50.00;;;;;;5013065;28;20460;-78
2023/02/04 08:16:47;;;;;;;13.70;3.20;;;8.20;40.70;;;;;;5013187;28;20576;-77
2023/02/04 08:19:17;;;;;;;11.73;3.27;;;8.30;32.90;;;;;;5012695;28;20541;-78
2023/02/04 08:21:44;;;;;;;11.87;3.00;;;8.40;30.40;;;;;;5013141;28;20444;-78
2023/02/04 08:24:13;;;;;;;14.20;3.47;;;8.40;27.80;;;;;;5013356;28;20665;-78
2023/02/04 08:26:40;;;;;;;20.60;3.20;;;8.50;15.10;;;;;;5013166;28;20533;-77
2023/02/04 08:29:07;;;;;;;11.30;3.60;;;8.50;3.00;;;;;;4993852;28;20481;-78
2023/02/04 08:31:35;;;;;;;13.93;2.97;;;8.60;1.00;;;;;;4992588;28;20909;-79
2023/02/04 08:34:02;;;;;;;18.73;3.67;;;8.60;1.00;;;;;;4993401;28;20495;-78
2023/02/04 08:36:29;;;;;;;26.37;10.93;;;8.70;1.00;;;;;;4993539;28;20490;-78
2023/02/04 08:38:55;;;;;;;21.73;6.10;;;8.70;1.00;;;;;;5009591;28;20457;-80
2023/02/04 08:41:25;;;;;;;18.40;4.80;;;8.90;1.00;;;;;;5012656;28;20475;-78
2023/02/04 08:43:52;;;;;;;13.17;4.60;;;8.90;1.00;;;;;;5012543;28;20509;-78
2023/02/04 08:46:18;;;;;;;15.70;3.40;;;9.10;1.00;;;;;;5012507;28;20517;-77
2023/02/04 08:48:45;;;;;;;17.50;4.07;;;9.20;1.00;;;;;;4997075;28;20903;-78
2023/02/04 08:51:12;;;;;;;17.00;3.40;;;9.20;1.00;;;;;;4992804;28;20858;-78
2023/02/04 08:53:39;;;;;;;21.93;3.87;;;9.30;1.00;;;;;;4992457;28;20462;-78
2023/02/04 08:56:07;;;;;;;11.97;3.53;;;9.20;1.00;;;;;;4992667;28;20600;-78
2023/02/04 08:58:36;;;;;;;15.27;3.60;;;9.40;1.00;;;;;;4992993;28;20459;-78
2023/02/04 09:01:03;;;;;;;17.53;3.67;;;9.50;1.00;;;;;;4992401;28;20466;-78
2023/02/04 09:03:30;;;;;;;11.93;3.37;;;9.70;1.00;;;;;;4992673;28;20456;-77
2023/02/04 09:05:56;;;;;;;16.70;3.83;;;9.60;1.00;;;;;;4992630;28;20490;-78
2023/02/04 09:08:23;;;;;;;16.43;4.47;;;9.80;1.00;;;;;;5004262;28;21025;-78
2023/02/04 09:10:50;;;;;;;14.37;3.57;;;9.80;1.00;;;;;;5012108;28;20483;-78
2023/02/04 09:13:17;;;;;;;21.20;3.30;;;9.70;1.00;;;;;;5011789;28;20452;-78
2023/02/04 09:15:45;;;;;;;18.87;5.17;;;9.80;1.00;;;;;;5012129;28;21004;-77
2023/02/04 09:18:15;;;;;;;20.33;3.70;;;9.60;1.00;;;;;;5001787;28;20539;-77
2023/02/04 09:20:42;;;;;;;15.87;3.63;;;9.70;1.00;;;;;;4992513;28;20466;-77
2023/02/04 09:23:10;;;;;;;20.37;4.53;;;9.80;1.00;;;;;;4992807;28;20455;-78
2023/02/04 09:25:38;;;;;;;22.07;4.60;;;9.80;99.90;;;;;;4992698;28;20489;-78
2023/02/04 09:28:05;;;;;;;20.47;4.17;;;10.10;1.00;;;;;;5002035;28;20464;-78
2023/02/04 09:30:32;;;;;;;18.33;3.90;;;10.10;99.90;;;;;;5012227;28;20472;-77
2023/02/04 09:33:00;;;;;;;15.13;4.00;;;10.30;99.90;;;;;;5012625;28;20820;-78
2023/02/04 09:35:27;;;;;;;24.97;4.83;;;10.50;99.90;;;;;;5012545;28;20469;-78
2023/02/04 09:37:54;;;;;;;15.70;4.40;;;10.50;99.90;;;;;;5004537;28;20465;-78
2023/02/04 09:40:21;;;;;;;25.33;4.80;;;10.50;99.90;;;;;;4992255;28;20453;-78
2023/02/04 09:42:50;;;;;;;22.13;5.13;;;10.40;99.90;;;;;;4992468;28;20458;-78
2023/02/04 09:45:19;;;;;;;14.70;4.93;;;10.50;99.90;;;;;;4991969;28;20544;-78
2023/02/04 09:47:46;;;;;;;17.50;4.23;;;10.60;99.90;;;;;;4997984;28;20461;-77
2023/02/04 09:50:17;;;;;;;27.67;4.50;;;10.80;99.90;;;;;;5010992;28;20460;-78
2023/02/04 09:52:49;;;;;;;20.73;4.70;;;10.90;99.90;;;;;;5012159;28;20437;-78
2023/02/04 09:55:17;;;;;;;16.13;5.13;;;11.00;20.90;;;;;;5013482;28;20512;-78
2023/02/04 09:57:44;;;;;;;24.60;5.30;;;11.10;1.00;;;;;;5009688;28;20488;-77
2023/02/04 10:00:16;;;;;;;20.43;6.63;;;10.90;1.00;;;;;;4996665;28;20461;-79
2023/02/04 10:02:44;;;;;;;21.87;5.50;;;10.70;1.00;;;;;;5015809;28;20434;-78
2023/02/04 10:05:15;;;;;;;21.90;5.33;;;10.70;1.00;;;;;;5015302;28;20490;-78
2023/02/04 10:07:42;;;;;;;19.90;5.10;;;10.70;24.90;;;;;;5010630;28;20452;-76
2023/02/04 10:10:16;;;;;;;27.00;7.63;;;10.80;99.90;;;;;;4995491;28;20466;-79
2023/02/04 10:12:42;;;;;;;36.13;8.17;;;11.00;85.70;;;;;;4995907;28;20442;-78
2023/02/04 10:15:13;;;;;;;21.10;6.30;;;11.00;1.00;;;;;;4995613;28;20481;-77
2023/02/04 10:17:40;;;;;;;24.77;7.30;;;11.00;1.00;;;;;;5000083;28;20838;-78
2023/02/04 10:20:12;;;;;;;22.67;5.60;;;11.20;1.00;;;;;;5009805;28;20827;-78
2023/02/04 10:22:41;;;;;;;15.43;5.57;;;11.00;99.90;;;;;;4995921;28;20837;-78
2023/02/04 10:25:13;;;;;;;23.97;6.73;;;10.90;1.00;;;;;;4995784;28;20478;-77
2023/02/04 10:27:48;;;;;;;15.23;4.60;;;10.80;1.00;;;;;;4995898;28;20524;-78
2023/02/04 10:30:20;;;;;;;20.73;5.40;;;10.90;1.00;;;;;;4995153;28;20453;-78
2023/02/04 10:32:47;;;;;;;18.97;5.47;;;10.90;1.00;;;;;;4994640;28;20925;-77
2023/02/04 10:35:15;;;;;;;17.60;5.80;;;11.00;1.00;;;;;;4996467;28;20484;-77
2023/02/04 10:37:44;;;;;;;16.93;4.37;;;11.20;1.00;;;;;;4997261;28;20483;-78
2023/02/04 10:40:28;;;;;;;22.60;5.57;;;11.60;1.00;;;;;;4999026;28;20520;-79
2023/02/04 10:42:55;;;;;;;25.37;7.00;;;12.40;99.90;;;;;;5000518;28;20437;-79
2023/02/04 10:45:24;;;;;;;22.73;5.90;;;12.90;75.90;;;;;;4998677;28;20494;-78
2023/02/04 10:47:52;;;;;;;17.20;5.90;;;12.60;99.90;;;;;;4998792;28;20456;-79
2023/02/04 10:50:20;;;;;;;12.47;4.87;;;12.40;1.00;;;;;;4999518;28;20458;-78
2023/02/04 10:54:28;;;;;;;16.60;4.80;;;12.10;99.90;;;;;;4998388;28;20457;-78
2023/02/04 10:55:41;;;;;;;16.17;5.53;;;12.10;1.00;;;;;;4998332;28;20525;-79
2023/02/04 10:58:11;;;;;;;30.63;4.97;;;12.10;1.00;;;;;;4999221;28;20456;-78
2023/02/04 11:00:38;;;;;;;11.50;4.60;;;12.20;1.00;;;;;;5002750;28;20461;-78
2023/02/04 11:03:07;;;;;;;22.70;6.10;;;12.40;99.90;;;;;;4999237;28;20545;-78
2023/02/04 11:05:35;;;;;;;20.87;6.07;;;12.50;1.00;;;;;;5019188;23;20499;-78
2023/02/04 11:08:18;;;;;;;23.60;5.40;;;12.40;1.00;;;;;;5031264;28;20947;-78
2023/02/04 11:10:45;;;;;;;18.33;5.77;;;12.60;1.00;;;;;;5034873;28;20455;-78
2023/02/04 11:13:23;;;;;;;14.67;5.10;;;12.40;1.00;;;;;;5036347;28;20448;-80
2023/02/04 11:15:54;;;;;;;16.90;5.60;;;12.50;1.00;;;;;;5029678;28;20483;-79
2023/02/04 11:18:32;;;;;;;21.27;6.07;;;12.30;1.00;;;;;;5014667;28;20950;-77
2023/02/04 11:20:59;;;;;;;23.50;6.93;;;12.40;99.90;;;;;;5014830;28;20446;-78
2023/02/04 11:23:34;;;;;;;17.33;5.33;;;12.30;1.00;;;;;;5014526;28;20519;-78
2023/02/04 11:26:32;;;;;;;22.67;7.70;;;12.00;1.00;;;;;;5008797;28;20480;-78
2023/02/04 11:29:24;;;;;;;17.40;5.87;;;12.00;99.90;;;;;;5017162;28;20462;-78
2023/02/04 11:32:00;;;;;;;20.93;6.13;;;11.90;1.00;;;;;;5013223;28;20453;-78
2023/02/04 11:34:45;;;;;;;18.77;6.80;;;11.90;99.90;;;;;;5012478;28;20452;-78
2023/02/04 11:37:18;;;;;;;33.30;7.70;;;11.90;99.90;;;;;;4996138;28;20562;-78
2023/02/04 11:39:49;;;;;;;20.17;6.73;;;11.90;1.00;;;;;;5006989;28;20444;-78
2023/02/04 11:42:21;;;;;;;22.07;8.97;;;11.80;99.90;;;;;;5002149;28;20456;-76
2023/02/04 11:44:57;;;;;;;21.47;7.73;;;11.70;99.90;;;;;;5013011;28;20461;-78
2023/02/04 11:47:26;;;;;;;15.90;5.87;;;11.80;99.90;;;;;;5011209;28;20479;-78
2023/02/04 11:49:56;;;;;;;18.47;7.20;;;11.80;99.90;;;;;;5014939;28;20449;-79
2023/02/04 11:52:23;;;;;;;23.03;8.63;;;11.70;99.90;;;;;;5016191;28;20454;-79
2023/02/04 11:54:55;;;;;;;19.67;8.67;;;11.60;99.90;;;;;;5015551;28;20456;-78
2023/02/04 11:57:22;;;;;;;20.00;8.17;;;11.60;99.90;;;;;;5015347;28;20520;-79
2023/02/04 11:59:49;;;;;;;19.23;7.50;;;11.50;1.00;;;;;;5015548;28;20467;-78
2023/02/04 12:02:17;;;;;;;19.73;7.80;;;11.60;99.90;;;;;;4995913;28;20846;-77
2023/02/04 12:04:55;;;;;;;21.93;10.13;;;11.70;99.90;;;;;;4995367;28;20459;-79
2023/02/04 12:07:25;;;;;;;19.50;8.37;;;11.80;32.30;;;;;;4994479;28;21014;-77
2023/02/04 12:09:54;;;;;;;20.40;8.50;;;11.60;99.90;;;;;;4994825;28;20484;-79
2023/02/04 12:12:27;;;;;;;16.10;7.07;;;11.70;99.90;;;;;;5015624;28;20463;-77
2023/02/04 12:14:58;;;;;;;12.90;6.67;;;11.50;47.40;;;;;;5014395;28;20851;-79
2023/02/04 12:17:25;;;;;;;22.63;7.30;;;11.50;1.00;;;;;;5014009;28;20489;-79
2023/02/04 12:19:52;;;;;;;21.77;6.30;;;11.40;99.90;;;;;;5015016;28;20454;-79
2023/02/04 12:22:19;;;;;;;13.10;5.97;;;11.50;34.90;;;;;;5015680;28;20545;-79
2023/02/04 12:24:46;;;;;;;12.93;5.97;;;11.50;1.00;;;;;;5015628;28;20545;-78
2023/02/04 12:27:14;;;;;;;17.77;6.77;;;11.50;99.90;;;;;;5015962;28;20479;-79
2023/02/04 12:29:41;;;;;;;12.50;5.80;;;11.60;1.00;;;;;;5014858;28;20464;-79
2023/02/04 12:32:07;;;;;;;26.80;6.80;;;11.60;1.00;;;;;;5012916;28;20862;-78
2023/02/04 12:34:34;;;;;;;18.30;5.77;;;11.60;1.00;;;;;;5014948;28;20464;-78
2023/02/04 12:37:01;;;;;;;13.60;6.87;;;11.60;1.00;;;;;;5015027;28;20501;-79
2023/02/04 12:39:28;;;;;;;21.77;6.67;;;11.70;1.00;;;;;;5013967;28;20470;-78
2023/02/04 12:41:55;;;;;;;16.80;5.77;;;11.80;99.90;;;;;;5015354;28;20454;-80
2023/02/04 12:44:23;;;;;;;12.90;7.00;;;11.80;27.10;;;;;;5014533;28;20461;-78
2023/02/04 12:46:50;;;;;;;22.67;7.53;;;11.90;99.90;;;;;;5014323;28;20838;-77
2023/02/04 12:49:17;;;;;;;16.77;7.20;;;11.70;99.90;;;;;;5013303;28;20467;-78
2023/02/04 12:51:43;;;;;;;19.43;7.50;;;11.90;99.90;;;;;;5013460;28;20452;-78